createdAt,value
2023-02-20T00:00:00.704Z,4.39
2023-02-20T00:05:05.062Z,4.41
2023-02-20T00:10:09.665Z,4.36
2023-02-20T00:15:16.100Z,4.33
2023-02-20T00:20:22.185Z,4.31
2023-02-20T00:25:25.737Z,4.33
2023-02-20T00:30:29.112Z,4.32
2023-02-20T00:35:32.536Z,4.31
2023-02-20T00:40:35.840Z,4.30
2023-02-20T00:45:39.312Z,4.32
2023-02-20T00:50:43.065Z,4.35
2023-02-20T00:55:46.561Z,4.34
2023-02-20T01:00:49.815Z,4.31
2023-02-20T01:05:53.276Z,4.32
2023-02-20T01:10:56.750Z,4.29
2023-02-20T01:16:00.225Z,4.26
2023-02-20T01:21:03.829Z,4.24
2023-02-20T01:26:07.092Z,4.28
2023-02-20T01:31:10.439Z,4.28
2023-02-20T01:36:14.769Z,4.30
2023-02-20T01:41:19.185Z,4.27
2023-02-20T01:46:48.671Z,4.33
2023-02-20T01:52:01.814Z,4.36
2023-02-20T01:57:09.857Z,4.29
2023-02-20T02:02:14.283Z,4.31
2023-02-20T02:07:18.083Z,4.36
2023-02-20T02:12:23.053Z,4.43
2023-02-20T02:17:48.756Z,4.43
2023-02-20T02:23:07.280Z,4.37
2023-02-20T02:28:44.528Z,4.38
2023-02-20T02:34:05.170Z,4.38
2023-02-20T02:39:42.923Z,4.33
2023-02-20T02:45:04.006Z,4.33
2023-02-20T02:50:22.061Z,4.37
2023-02-20T02:55:31.934Z,4.37
2023-02-20T03:01:12.827Z,4.40
2023-02-20T03:06:29.325Z,4.42
2023-02-20T03:11:35.440Z,4.46
2023-02-20T03:17:26.822Z,4.52
2023-02-20T03:22:39.536Z,4.55
2023-02-20T03:28:11.389Z,4.56
2023-02-20T03:33:52.785Z,4.59
2023-02-20T03:39:25.573Z,4.58
2023-02-20T03:44:32.588Z,4.51
2023-02-20T03:49:40.753Z,4.45
2023-02-20T03:54:46.124Z,4.40
2023-02-20T04:00:04.853Z,4.35
2023-02-20T04:05:30.506Z,4.30
2023-02-20T04:10:42.687Z,4.29
2023-02-20T04:15:47.059Z,4.22
2023-02-20T04:20:54.614Z,4.18
2023-02-20T04:26:05.571Z,4.24
2023-02-20T04:31:14.069Z,4.20
2023-02-20T04:36:18.617Z,4.19
2023-02-20T04:41:22.413Z,4.22
2023-02-20T04:46:25.788Z,4.24
2023-02-20T04:51:29.343Z,4.22
2023-02-20T04:56:32.661Z,4.21
2023-02-20T05:01:37.431Z,4.16
2023-02-20T05:06:46.170Z,4.11
2023-02-20T05:11:50.024Z,4.12
2023-02-20T05:16:53.477Z,4.18
2023-02-20T05:22:16.396Z,4.18
2023-02-20T05:27:22.254Z,4.14
2023-02-20T05:32:27.810Z,4.16
2023-02-20T05:37:33.369Z,4.13
2023-02-20T05:42:37.916Z,4.10
2023-02-20T05:47:41.219Z,4.14
2023-02-20T05:52:45.249Z,4.16
2023-02-20T05:57:48.938Z,4.19
2023-02-20T06:02:52.916Z,4.15
2023-02-20T06:07:56.630Z,4.15
2023-02-20T06:13:00.053Z,4.18
2023-02-20T06:18:03.688Z,4.24
2023-02-20T06:23:07.197Z,4.28
2023-02-20T06:28:10.810Z,4.33
2023-02-20T06:33:13.994Z,4.37
2023-02-20T06:38:17.442Z,4.43
2023-02-20T06:43:21.156Z,4.49
2023-02-20T06:48:24.850Z,4.55
2023-02-20T06:53:28.400Z,4.64
2023-02-20T06:58:32.035Z,4.73
2023-02-20T07:03:35.514Z,4.79
2023-02-20T07:08:39.026Z,4.84
2023-02-20T07:13:42.445Z,4.84
2023-02-20T07:18:45.883Z,4.82
2023-02-20T07:23:49.442Z,4.83
2023-02-20T07:28:54.892Z,4.88
2023-02-20T07:33:59.950Z,4.95
2023-02-20T07:39:13.174Z,4.92
2023-02-20T07:44:17.085Z,4.93
2023-02-20T07:49:20.281Z,4.96
2023-02-20T07:54:23.985Z,5.02
2023-02-20T07:59:27.240Z,5.11
2023-02-20T08:04:30.816Z,5.19
2023-02-20T08:09:34.172Z,5.21
2023-02-20T08:14:37.558Z,5.26
2023-02-20T08:19:41.137Z,5.29
2023-02-20T08:24:44.833Z,5.26
2023-02-20T08:29:49.666Z,5.22
2023-02-20T08:34:54.954Z,5.26
2023-02-20T08:39:58.941Z,5.30
2023-02-20T08:45:05.578Z,5.35
2023-02-20T08:50:10.624Z,5.41
2023-02-20T08:55:16.401Z,5.40
2023-02-20T09:00:22.923Z,5.39
2023-02-20T09:05:27.998Z,5.50
2023-02-20T09:10:33.482Z,5.64
2023-02-20T09:15:40.159Z,5.75
2023-02-20T09:20:44.919Z,5.79
2023-02-20T09:25:49.363Z,5.80
2023-02-20T09:30:58.354Z,5.90
2023-02-20T09:36:03.072Z,5.97
2023-02-20T09:41:12.108Z,5.99
2023-02-20T09:46:21.988Z,6.02
2023-02-20T09:51:32.263Z,6.03
2023-02-20T09:56:43.194Z,6.14
2023-02-20T10:02:05.667Z,6.29
2023-02-20T10:07:32.319Z,6.39
2023-02-20T10:12:45.717Z,6.48
2023-02-20T10:25:57.848Z,6.46
2023-02-20T10:31:37.688Z,6.53
2023-02-20T10:36:49.568Z,6.63
2023-02-20T10:42:04.515Z,6.69
2023-02-20T10:47:20.786Z,6.69
2023-02-20T10:52:35.969Z,6.83
2023-02-20T10:58:05.082Z,6.91
2023-02-20T11:03:15.747Z,6.96
2023-02-20T11:08:21.836Z,7.10
2023-02-20T11:13:25.972Z,7.30
2023-02-20T11:18:40.386Z,7.45
2023-02-20T11:23:44.883Z,7.57
2023-02-20T11:29:03.549Z,7.70
2023-02-20T11:34:21.864Z,7.79
2023-02-20T11:39:30.051Z,7.86
2023-02-20T11:44:33.975Z,7.92
2023-02-20T11:49:38.013Z,8.02
2023-02-20T11:54:41.804Z,8.08
2023-02-20T11:59:54.271Z,8.10
2023-02-20T12:05:02.686Z,8.11
2023-02-20T12:10:43.444Z,8.10
2023-02-20T12:15:55.603Z,8.03
2023-02-20T12:21:35.919Z,8.05
2023-02-20T12:34:27.135Z,8.17
2023-02-20T12:39:49.160Z,8.21
2023-02-20T12:44:54.250Z,8.29
2023-02-20T12:50:24.606Z,8.35
2023-02-20T12:55:52.351Z,8.44
2023-02-20T13:01:06.547Z,8.49
2023-02-20T13:06:15.863Z,8.55
2023-02-20T13:11:24.096Z,8.62
2023-02-20T13:16:57.709Z,8.62
2023-02-20T13:22:02.149Z,8.70
2023-02-20T13:27:09.264Z,8.77
2023-02-20T13:32:19.875Z,8.83
2023-02-20T13:37:37.080Z,8.89
2023-02-20T13:42:40.690Z,8.94
2023-02-20T13:47:45.888Z,9.00
2023-02-20T13:52:57.492Z,9.03
2023-02-20T14:05:47.683Z,9.12
2023-02-20T14:10:52.248Z,9.17
2023-02-20T14:15:59.570Z,9.22
2023-02-20T14:21:19.037Z,9.24
2023-02-20T14:26:28.467Z,9.24
2023-02-20T14:31:39.325Z,9.28
2023-02-20T14:36:56.613Z,9.32
2023-02-20T14:42:04.107Z,9.33
2023-02-20T14:47:13.001Z,9.31
2023-02-20T14:52:24.203Z,9.33
2023-02-20T14:57:31.173Z,9.37
2023-02-20T15:02:35.819Z,9.40
2023-02-20T15:07:41.297Z,9.43
2023-02-20T15:12:46.393Z,9.45
2023-02-20T15:18:12.523Z,9.45
2023-02-20T15:23:16.294Z,9.46
2023-02-20T15:28:23.668Z,9.45
2023-02-20T15:33:30.076Z,9.43
2023-02-20T15:38:38.045Z,9.37
2023-02-20T15:43:48.289Z,9.32
2023-02-20T15:48:56.746Z,9.32
2023-02-20T16:18:05.078Z,9.50
2023-02-20T16:23:10.326Z,9.58
2023-02-20T16:28:14.202Z,9.71
2023-02-20T16:33:51.414Z,9.82
2023-02-20T16:45:16.274Z,10.05
2023-02-20T16:52:00.027Z,10.12
2023-02-20T18:06:34.041Z,10.57
2023-02-20T18:19:24.126Z,10.62
2023-02-20T18:25:40.009Z,10.65
2023-02-20T18:31:26.771Z,10.70
2023-02-20T18:37:07.506Z,10.77
2023-02-20T18:42:57.738Z,10.82
2023-02-20T18:48:08.887Z,10.84
2023-02-20T18:53:32.532Z,10.89
2023-02-20T18:59:10.644Z,10.93
2023-02-20T19:04:17.364Z,10.98
2023-02-20T19:10:05.774Z,11.02
2023-02-20T19:15:26.234Z,11.04
2023-02-20T19:20:33.137Z,11.08
2023-02-20T19:26:02.591Z,11.10
2023-02-20T19:31:06.322Z,11.13
2023-02-20T19:36:15.808Z,11.18
2023-02-20T19:41:57.885Z,11.20
2023-02-20T19:47:25.132Z,11.22
2023-02-20T19:52:54.207Z,11.21
2023-02-20T19:58:02.913Z,11.22
2023-02-20T20:03:20.024Z,11.23
2023-02-20T20:09:11.641Z,11.25
2023-02-20T20:14:24.534Z,11.30
2023-02-20T20:19:57.985Z,11.31
2023-02-20T20:25:20.874Z,11.34
2023-02-20T20:31:31.101Z,11.32
2023-02-20T20:37:09.897Z,11.25
2023-02-20T20:43:03.759Z,11.26
2023-02-20T20:48:31.007Z,11.29
2023-02-20T20:53:59.935Z,11.29
2023-02-20T20:59:37.411Z,11.27
2023-02-20T21:05:10.731Z,11.29
2023-02-20T21:11:04.831Z,11.28
2023-02-20T21:16:13.999Z,11.28
2023-02-20T21:21:17.768Z,11.29
2023-02-20T21:26:41.651Z,11.30
2023-02-20T21:32:30.871Z,11.28
2023-02-20T21:37:50.079Z,11.24
2023-02-20T21:43:34.546Z,11.25
2023-02-20T21:48:44.789Z,11.29
2023-02-20T21:54:42.688Z,11.31
2023-02-20T22:00:10.460Z,11.34
2023-02-20T22:05:43.971Z,11.34
2023-02-20T22:12:04.041Z,11.36
2023-02-20T22:18:00.210Z,11.37
2023-02-20T22:24:01.639Z,11.41
2023-02-20T22:29:46.969Z,11.45
2023-02-20T22:35:14.484Z,11.44
2023-02-20T22:40:50.216Z,11.45
2023-02-20T22:47:10.807Z,11.44
2023-02-20T22:52:35.867Z,11.44
2023-02-20T22:58:30.583Z,11.48
2023-02-20T23:04:12.811Z,11.50
2023-02-20T23:10:08.304Z,11.49
2023-02-20T23:15:52.381Z,11.48
2023-02-20T23:21:57.873Z,11.44
2023-02-20T23:27:27.380Z,11.42
2023-02-20T23:32:49.868Z,11.42
2023-02-20T23:38:56.324Z,11.43
2023-02-20T23:44:42.039Z,11.42
2023-02-20T23:50:17.000Z,11.39
2023-02-20T23:55:54.613Z,11.34
